createdAt,value
2019-02-12T00:02:00.545Z,2.42
2019-02-12T00:04:26.489Z,2.41
2019-02-12T00:06:52.639Z,2.46
2019-02-12T00:09:18.461Z,2.49
2019-02-12T00:11:44.417Z,2.57
2019-02-12T00:14:10.299Z,2.57
2019-02-12T00:16:36.263Z,2.53
2019-02-12T00:19:02.174Z,2.57
2019-02-12T00:21:27.999Z,2.61
2019-02-12T00:23:53.843Z,2.69
2019-02-12T00:26:19.670Z,2.72
2019-02-12T00:28:45.659Z,2.77
2019-02-12T00:31:11.496Z,2.76
2019-02-12T00:33:37.354Z,2.74
2019-02-12T00:36:03.276Z,2.75
2019-02-12T00:38:29.134Z,2.70
2019-02-12T00:40:54.979Z,2.60
2019-02-12T00:43:20.830Z,2.57
2019-02-12T00:45:46.779Z,2.65
2019-02-12T00:48:12.647Z,2.77
2019-02-12T00:50:38.477Z,2.81
2019-02-12T00:53:04.333Z,2.78
2019-02-12T00:55:30.148Z,2.75
2019-02-12T00:57:56.015Z,2.74
2019-02-12T01:00:21.863Z,2.69
2019-02-12T01:02:47.704Z,2.72
2019-02-12T01:05:13.662Z,2.60
2019-02-12T01:07:39.502Z,2.44
2019-02-12T01:10:09.221Z,2.26
2019-02-12T01:12:35.668Z,2.09
2019-02-12T01:15:01.508Z,1.96
2019-02-12T01:17:27.348Z,1.85
2019-02-12T01:19:53.218Z,1.74
2019-02-12T01:22:19.032Z,1.69
2019-02-12T01:24:44.955Z,1.76
2019-02-12T01:27:10.818Z,1.81
2019-02-12T01:29:36.634Z,1.87
2019-02-12T01:32:02.471Z,1.84
2019-02-12T01:34:28.322Z,1.79
2019-02-12T01:36:54.171Z,1.73
2019-02-12T01:39:19.988Z,1.76
2019-02-12T01:41:45.841Z,1.79
2019-02-12T01:44:11.672Z,1.88
2019-02-12T01:46:37.501Z,1.96
2019-02-12T01:49:03.331Z,2.04
2019-02-12T01:51:34.952Z,2.01
2019-02-12T01:53:56.892Z,1.90
2019-02-12T01:56:22.759Z,1.81
2019-02-12T01:58:48.617Z,1.72
2019-02-12T02:01:14.484Z,1.65
2019-02-12T02:03:40.299Z,1.56
2019-02-12T02:06:06.160Z,1.52
2019-02-12T02:08:32.094Z,1.45
2019-02-12T02:10:57.938Z,1.34
2019-02-12T02:13:23.777Z,1.32
2019-02-12T02:15:49.594Z,1.21
2019-02-12T02:18:15.441Z,1.07
2019-02-12T02:20:41.266Z,0.98
2019-02-12T02:23:07.144Z,0.88
2019-02-12T02:25:32.994Z,0.79
2019-02-12T02:27:58.809Z,0.71
2019-02-12T02:30:24.617Z,0.61
2019-02-12T02:32:50.499Z,0.56
2019-02-12T02:35:16.309Z,0.51
2019-02-12T02:37:42.125Z,0.46
2019-02-12T02:40:09.368Z,0.41
2019-02-12T02:42:35.177Z,0.43
2019-02-12T02:45:01.027Z,0.48
2019-02-12T02:47:26.961Z,0.48
2019-02-12T02:49:52.811Z,0.49
2019-02-12T02:52:18.665Z,0.44
2019-02-12T02:54:44.506Z,0.44
2019-02-12T02:57:10.354Z,0.38
2019-02-12T02:59:36.182Z,0.32
2019-02-12T03:02:02.027Z,0.28
2019-02-12T03:04:27.875Z,0.28
2019-02-12T03:06:53.697Z,0.24
2019-02-12T03:09:19.546Z,0.21
2019-02-12T03:11:45.363Z,0.21
2019-02-12T03:14:11.326Z,0.28
2019-02-12T03:16:37.144Z,0.37
2019-02-12T03:19:03.115Z,0.54
2019-02-12T03:21:29.048Z,0.56
2019-02-12T03:23:54.862Z,0.65
2019-02-12T03:26:20.693Z,0.59
2019-02-12T03:28:46.508Z,0.50
2019-02-12T03:31:12.356Z,0.45
2019-02-12T03:33:38.160Z,0.38
2019-02-12T03:36:04.003Z,0.25
2019-02-12T03:38:29.818Z,0.17
2019-02-12T03:40:55.797Z,0.07
2019-02-12T03:43:21.622Z,0.07
2019-02-12T03:45:47.476Z,0.19
2019-02-12T03:48:13.305Z,0.42
2019-02-12T03:50:39.165Z,0.56
2019-02-12T03:53:04.981Z,0.72
2019-02-12T03:55:30.923Z,0.86
2019-02-12T03:57:56.744Z,1.00
2019-02-12T04:00:22.693Z,1.07
2019-02-12T04:03:00.546Z,1.19
2019-02-12T04:05:26.474Z,1.29
2019-02-12T04:07:54.200Z,1.43
2019-02-12T04:10:20.040Z,1.52
2019-02-12T04:12:45.972Z,1.61
2019-02-12T04:15:12.008Z,1.70
2019-02-12T04:17:37.865Z,1.71
2019-02-12T04:20:03.800Z,1.71
2019-02-12T04:22:29.700Z,1.62
2019-02-12T04:24:55.561Z,1.48
2019-02-12T04:27:21.409Z,1.36
2019-02-12T04:29:47.219Z,1.20
2019-02-12T04:32:13.057Z,1.02
2019-02-12T04:34:38.868Z,0.93
2019-02-12T04:37:04.728Z,0.79
2019-02-12T04:39:30.553Z,0.67
2019-02-12T04:41:56.444Z,0.53
2019-02-12T04:44:22.222Z,0.46
2019-02-12T04:46:48.040Z,0.38
2019-02-12T04:49:14.060Z,0.35
2019-02-12T04:51:39.876Z,0.29
2019-02-12T04:54:05.716Z,0.25
2019-02-12T04:56:31.630Z,0.18
2019-02-12T04:58:57.463Z,0.12
2019-02-12T05:01:23.312Z,0.09
2019-02-12T05:03:49.151Z,0.06
2019-02-12T05:06:14.975Z,0.12
2019-02-12T05:09:04.225Z,0.05
2019-02-12T05:11:30.039Z,-0.03
2019-02-12T05:13:55.874Z,-0.09
2019-02-12T05:16:21.694Z,-0.13
2019-02-12T05:18:47.534Z,-0.16
2019-02-12T05:21:13.754Z,-0.16
2019-02-12T05:23:39.639Z,-0.18
2019-02-12T05:26:05.452Z,-0.20
2019-02-12T05:28:31.284Z,-0.23
2019-02-12T05:30:57.133Z,-0.27
2019-02-12T05:33:25.576Z,-0.29
2019-02-12T05:35:51.384Z,-0.32
2019-02-12T05:38:17.329Z,-0.32
2019-02-12T05:40:43.160Z,-0.28
2019-02-12T05:43:09.022Z,-0.31
2019-02-12T05:45:34.901Z,-0.31
2019-02-12T05:48:00.739Z,-0.19
2019-02-12T05:50:26.586Z,-0.16
2019-02-12T05:52:54.777Z,-0.13
2019-02-12T05:55:20.340Z,-0.14
2019-02-12T05:57:46.177Z,-0.15
2019-02-12T06:00:16.166Z,-0.16
2019-02-12T06:02:42.036Z,-0.10
2019-02-12T06:05:07.890Z,-0.06
2019-02-12T06:07:33.707Z,-0.05
2019-02-12T06:09:59.556Z,-0.01
2019-02-12T06:12:25.381Z,0.08
2019-02-12T06:14:51.223Z,0.11
2019-02-12T06:17:17.065Z,0.09
2019-02-12T06:19:43.011Z,0.10
2019-02-12T06:22:09.055Z,0.14
2019-02-12T06:24:34.872Z,0.14
2019-02-12T06:27:00.742Z,0.12
2019-02-12T06:29:26.852Z,0.05
2019-02-12T06:31:52.711Z,0.05
2019-02-12T06:34:18.546Z,0.04
2019-02-12T06:36:44.484Z,0.03
2019-02-12T06:39:10.301Z,0.03
2019-02-12T06:41:36.561Z,0.05
2019-02-12T06:44:02.499Z,0.08
2019-02-12T06:46:29.528Z,0.14
2019-02-12T06:48:55.788Z,0.17
2019-02-12T06:51:21.645Z,0.12
2019-02-12T06:53:47.471Z,0.11
2019-02-12T06:56:13.316Z,0.10
2019-02-12T06:58:39.167Z,0.17
2019-02-12T07:01:05.061Z,0.25
2019-02-12T07:03:37.286Z,0.30
2019-02-12T07:06:13.024Z,0.37
2019-02-12T07:08:45.433Z,0.44
2019-02-12T07:11:47.187Z,0.49
2019-02-12T07:14:33.570Z,0.58
2019-02-12T07:17:12.370Z,0.65
2019-02-12T07:19:51.069Z,0.72
2019-02-12T07:22:37.515Z,0.75
2019-02-12T07:25:07.148Z,0.77
2019-02-12T07:27:51.649Z,0.92
2019-02-12T07:30:42.604Z,1.01
2019-02-12T07:33:15.075Z,1.14
2019-02-12T07:35:53.658Z,1.29
2019-02-12T07:38:26.087Z,1.53
2019-02-12T07:40:55.722Z,1.75
2019-02-12T07:43:28.121Z,1.89
2019-02-12T07:46:03.615Z,2.09
2019-02-12T07:48:39.341Z,2.13
2019-02-12T07:51:18.061Z,2.24
2019-02-12T07:54:02.724Z,2.34
2019-02-12T07:56:37.948Z,2.45
2019-02-12T07:59:16.059Z,2.56
2019-02-12T08:01:57.997Z,2.61
2019-02-12T08:04:52.040Z,2.71
2019-02-12T08:07:33.398Z,2.80
2019-02-12T08:10:32.188Z,2.81
2019-02-12T08:13:01.827Z,2.85
2019-02-12T08:15:31.501Z,2.84
2019-02-12T08:18:01.154Z,2.79
2019-02-12T08:20:36.471Z,2.81
2019-02-12T08:23:12.283Z,2.97
2019-02-12T08:25:50.646Z,3.19
2019-02-12T08:28:23.269Z,3.44
2019-02-12T08:31:04.528Z,3.61
2019-02-12T08:33:37.268Z,3.64
2019-02-12T08:36:10.093Z,3.64
2019-02-12T08:38:48.898Z,3.70
2019-02-12T08:41:50.399Z,3.87
2019-02-12T08:44:35.293Z,3.90
2019-02-12T08:47:19.895Z,3.82
2019-02-12T08:49:55.562Z,3.78
2019-02-12T08:52:54.031Z,3.84
2019-02-12T08:55:38.248Z,3.94
2019-02-12T08:58:10.896Z,3.99
2019-02-12T09:00:43.763Z,4.05
2019-02-12T09:03:34.902Z,4.14
2019-02-12T09:06:13.556Z,4.40
2019-02-12T09:08:45.792Z,4.65
2019-02-12T09:11:24.227Z,5.13
2019-02-12T09:14:09.217Z,5.42
2019-02-12T09:16:57.485Z,5.67
2019-02-12T09:19:30.374Z,5.74
2019-02-12T09:22:16.958Z,5.46
2019-02-12T09:25:11.163Z,5.28
2019-02-12T09:27:55.796Z,5.11
2019-02-12T09:30:28.443Z,4.90
2019-02-12T09:33:06.999Z,4.87
2019-02-12T09:35:42.423Z,4.68
2019-02-12T09:38:39.359Z,4.83
2019-02-12T09:41:27.972Z,4.90
2019-02-12T09:44:09.499Z,5.22
2019-02-12T09:46:42.172Z,5.27
2019-02-12T09:49:38.534Z,5.27
2019-02-12T09:52:25.061Z,5.26
2019-02-12T09:55:03.884Z,5.45
2019-02-12T09:57:33.540Z,5.67
2019-02-12T10:00:15.148Z,5.78
2019-02-12T10:02:56.826Z,5.78
2019-02-12T10:05:49.277Z,5.88
2019-02-12T10:08:24.681Z,6.20
2019-02-12T10:11:12.557Z,6.58
2019-02-12T10:13:48.379Z,6.51
2019-02-12T10:16:36.112Z,7.11
2019-02-12T10:19:08.805Z,7.11
2019-02-12T10:21:58.224Z,7.29
2019-02-12T10:24:27.813Z,7.38
2019-02-12T10:27:12.885Z,7.38
2019-02-12T10:29:57.599Z,7.40
2019-02-12T10:32:23.228Z,7.38
2019-02-12T10:34:49.068Z,7.33
2019-02-12T10:37:15.013Z,7.65
2019-02-12T10:39:40.857Z,7.91
2019-02-12T10:42:06.799Z,7.70
2019-02-12T10:44:34.570Z,7.44
2019-02-12T10:47:00.493Z,7.34
2019-02-12T10:49:26.393Z,7.89
2019-02-12T10:51:52.383Z,8.61
2019-02-12T10:54:18.206Z,9.35
2019-02-12T10:56:44.063Z,9.15
2019-02-12T10:59:09.889Z,9.22
2019-02-12T11:01:35.851Z,9.25
2019-02-12T11:04:01.715Z,8.73
2019-02-12T11:06:27.591Z,8.66
2019-02-12T11:08:53.408Z,8.51
2019-02-12T11:11:19.385Z,8.57
2019-02-12T11:13:45.244Z,8.95
2019-02-12T11:16:11.141Z,8.94
2019-02-12T11:18:37.107Z,9.21
2019-02-12T11:21:03.177Z,9.37
2019-02-12T11:23:29.008Z,9.09
2019-02-12T11:25:54.874Z,8.88
2019-02-12T11:28:20.710Z,8.38
2019-02-12T11:30:46.540Z,8.75
2019-02-12T11:33:12.392Z,9.12
2019-02-12T11:35:38.311Z,9.32
2019-02-12T11:38:04.179Z,9.34
2019-02-12T11:40:30.115Z,9.40
2019-02-12T11:42:56.051Z,9.27
2019-02-12T11:45:21.971Z,9.49
2019-02-12T11:47:47.807Z,8.94
2019-02-12T11:50:13.716Z,9.02
2019-02-12T11:52:39.942Z,9.00
2019-02-12T11:55:10.967Z,8.67
2019-02-12T11:57:36.836Z,8.92
2019-02-12T12:00:05.900Z,8.89
2019-02-12T12:02:32.626Z,8.63
2019-02-12T12:04:58.659Z,8.85
2019-02-12T12:07:24.510Z,9.05
2019-02-12T12:09:50.352Z,8.83
2019-02-12T12:12:16.174Z,8.92
2019-02-12T12:14:42.012Z,9.18
2019-02-12T12:17:07.853Z,8.69
2019-02-12T12:19:33.849Z,8.68
2019-02-12T12:21:59.703Z,9.16
2019-02-12T12:24:25.584Z,9.45
2019-02-12T12:26:51.395Z,9.79
2019-02-12T12:29:17.232Z,9.92
2019-02-12T12:31:43.043Z,10.31
2019-02-12T12:34:08.998Z,10.34
2019-02-12T12:36:34.815Z,10.88
2019-02-12T12:39:00.675Z,10.67
2019-02-12T12:41:26.494Z,10.94
2019-02-12T12:43:52.366Z,10.93
2019-02-12T12:46:18.217Z,11.15
2019-02-12T12:48:44.078Z,11.30
2019-02-12T12:51:09.921Z,11.75
2019-02-12T12:53:35.772Z,12.36
2019-02-12T12:56:01.639Z,12.72
2019-02-12T12:58:27.960Z,12.40
2019-02-12T13:00:53.983Z,11.42
2019-02-12T13:03:19.829Z,11.47
2019-02-12T13:05:45.780Z,11.54
2019-02-12T13:08:11.600Z,10.95
2019-02-12T13:10:37.453Z,11.37
2019-02-12T13:13:04.787Z,11.97
2019-02-12T13:15:30.952Z,12.22
2019-02-12T13:17:56.779Z,12.01
2019-02-12T13:20:22.650Z,11.91
2019-02-12T13:22:48.519Z,12.25
2019-02-12T13:25:14.380Z,12.28
2019-02-12T13:27:40.213Z,12.08
2019-02-12T13:30:09.881Z,11.75
2019-02-12T13:32:35.711Z,12.15
2019-02-12T13:35:02.081Z,12.08
2019-02-12T13:37:27.933Z,11.51
2019-02-12T13:39:53.759Z,11.91
2019-02-12T13:42:19.615Z,11.91
2019-02-12T13:44:45.470Z,11.48
2019-02-12T13:47:11.359Z,11.32
2019-02-12T13:49:37.202Z,11.10
2019-02-12T13:52:03.182Z,10.70
2019-02-12T13:54:29.023Z,10.50
2019-02-12T13:56:54.856Z,10.39
2019-02-12T13:59:20.682Z,10.26
2019-02-12T14:01:46.619Z,10.01
2019-02-12T14:04:13.051Z,9.97
2019-02-12T14:06:41.647Z,9.98
2019-02-12T14:09:08.117Z,9.69
2019-02-12T14:11:33.987Z,9.81
2019-02-12T14:13:59.843Z,9.52
2019-02-12T14:16:25.667Z,9.63
2019-02-12T14:18:51.534Z,9.82
2019-02-12T14:21:17.420Z,9.95
2019-02-12T14:23:43.257Z,9.57
2019-02-12T14:26:09.084Z,9.53
2019-02-12T14:28:34.933Z,9.81
2019-02-12T14:31:00.768Z,10.18
2019-02-12T14:33:26.621Z,10.37
2019-02-12T14:35:52.564Z,10.16
2019-02-12T14:38:18.381Z,10.39
2019-02-12T14:40:44.440Z,10.31
2019-02-12T14:43:14.053Z,10.04
2019-02-12T14:45:38.143Z,10.23
2019-02-12T14:48:04.001Z,10.21
2019-02-12T14:50:29.935Z,10.51
2019-02-12T14:52:55.923Z,10.52
2019-02-12T14:55:21.812Z,10.78
2019-02-12T14:57:47.654Z,10.64
2019-02-12T15:00:18.192Z,10.68
2019-02-12T15:02:44.165Z,10.88
2019-02-12T15:05:10.425Z,11.57
2019-02-12T15:07:36.359Z,12.73
2019-02-12T15:10:04.931Z,15.17
2019-02-12T15:12:30.773Z,18.79
2019-02-12T15:14:56.736Z,18.55
2019-02-12T15:17:22.662Z,19.88
2019-02-12T15:19:48.532Z,22.47
2019-02-12T15:22:14.367Z,21.97
2019-02-12T15:24:40.207Z,16.40
2019-02-12T15:27:06.035Z,15.49
2019-02-12T15:29:31.929Z,12.59
2019-02-12T15:31:57.780Z,11.77
2019-02-12T15:34:23.624Z,11.23
2019-02-12T15:36:49.466Z,11.02
2019-02-12T15:39:15.329Z,10.63
2019-02-12T15:41:41.184Z,9.73
2019-02-12T15:44:07.063Z,9.32
2019-02-12T15:46:32.978Z,9.23
2019-02-12T15:48:58.913Z,8.87
2019-02-12T15:51:24.804Z,8.91
2019-02-12T15:53:50.635Z,9.09
2019-02-12T15:56:16.688Z,9.03
2019-02-12T15:58:42.635Z,8.73
2019-02-12T16:01:08.492Z,8.64
2019-02-12T16:03:36.051Z,8.57
2019-02-12T16:06:02.249Z,8.36
2019-02-12T16:08:30.006Z,8.30
2019-02-12T16:10:57.111Z,7.71
2019-02-12T16:13:23.735Z,7.78
2019-02-12T16:15:53.368Z,7.82
2019-02-12T16:18:21.390Z,7.60
2019-02-12T16:20:47.241Z,7.63
2019-02-12T16:23:16.561Z,7.51
2019-02-12T16:25:59.341Z,7.18
2019-02-12T16:28:24.704Z,7.10
2019-02-12T16:30:50.591Z,6.94
2019-02-12T16:33:19.315Z,6.77
2019-02-12T16:35:45.291Z,6.68
2019-02-12T16:38:11.491Z,6.50
2019-02-12T16:40:41.736Z,6.37
2019-02-12T16:43:12.498Z,6.19
2019-02-12T16:45:50.075Z,6.00
2019-02-12T16:48:29.129Z,6.00
2019-02-12T16:50:55.097Z,5.88
2019-02-12T16:53:27.753Z,5.72
2019-02-12T16:55:52.590Z,5.54
2019-02-12T16:58:25.896Z,5.42
2019-02-12T17:00:53.724Z,5.31
2019-02-12T17:03:19.738Z,5.30
2019-02-12T17:05:47.506Z,5.31
2019-02-12T17:08:15.271Z,5.28
2019-02-12T17:10:44.231Z,5.24
2019-02-12T17:13:14.236Z,5.20
2019-02-12T17:15:46.283Z,5.18
2019-02-12T17:18:12.683Z,5.09
2019-02-12T17:20:38.632Z,5.10
2019-02-12T17:23:09.185Z,5.10
2019-02-12T17:25:35.139Z,5.07
2019-02-12T17:28:01.456Z,5.01
2019-02-12T17:30:29.040Z,5.00
2019-02-12T17:32:54.997Z,5.09
2019-02-12T17:35:20.865Z,5.09
2019-02-12T17:37:50.069Z,5.01
2019-02-12T17:40:17.843Z,4.92
2019-02-12T17:42:43.830Z,4.81
2019-02-12T17:45:14.569Z,4.67
2019-02-12T17:47:40.509Z,4.54
2019-02-12T17:50:08.783Z,4.44
2019-02-12T17:52:34.621Z,4.41
2019-02-12T17:55:01.624Z,4.44
2019-02-12T17:57:27.578Z,4.42
2019-02-12T17:59:54.386Z,4.52
2019-02-12T18:02:20.253Z,4.52
2019-02-12T18:04:46.142Z,4.55
2019-02-12T18:07:12.085Z,4.61
2019-02-12T18:09:38.096Z,4.69
2019-02-12T18:12:04.040Z,4.76
2019-02-12T18:14:29.873Z,4.81
2019-02-12T18:16:55.764Z,4.85
2019-02-12T18:19:21.691Z,4.84
2019-02-12T18:21:47.665Z,4.77
2019-02-12T18:24:13.526Z,4.75
2019-02-12T18:26:39.404Z,4.69
2019-02-12T18:29:05.280Z,4.68
2019-02-12T18:31:31.149Z,4.62
2019-02-12T18:33:57.006Z,4.61
2019-02-12T18:36:22.926Z,4.57
2019-02-12T18:38:48.813Z,4.50
2019-02-12T18:41:14.820Z,4.46
2019-02-12T18:43:40.632Z,4.43
2019-02-12T18:46:06.590Z,4.41
2019-02-12T18:48:32.459Z,4.44
2019-02-12T18:50:58.493Z,4.37
2019-02-12T18:53:24.446Z,4.31
2019-02-12T18:55:50.495Z,4.32
2019-02-12T18:58:16.612Z,4.53
2019-02-12T19:00:42.565Z,4.53
2019-02-12T19:03:08.944Z,4.65
2019-02-12T19:05:35.136Z,4.75
2019-02-12T19:08:01.210Z,4.80
2019-02-12T19:10:27.108Z,4.82
2019-02-12T19:12:53.875Z,4.83
2019-02-12T19:15:20.946Z,4.82
2019-02-12T19:17:58.012Z,4.81
2019-02-12T19:20:23.991Z,4.77
2019-02-12T19:22:50.165Z,4.77
2019-02-12T19:25:16.037Z,4.74
2019-02-12T19:27:42.298Z,4.71
2019-02-12T19:30:13.972Z,4.65
2019-02-12T19:32:40.064Z,4.60
2019-02-12T19:35:08.596Z,4.54
2019-02-12T19:37:34.616Z,4.46
2019-02-12T19:40:00.502Z,4.36
2019-02-12T19:42:26.465Z,4.31
2019-02-12T19:44:52.668Z,4.20
2019-02-12T19:47:18.522Z,4.19
2019-02-12T19:49:44.527Z,4.09
2019-02-12T19:52:10.466Z,4.05
2019-02-12T19:54:36.669Z,3.94
2019-02-12T19:57:02.603Z,3.87
2019-02-12T19:59:28.785Z,3.78
2019-02-12T20:01:55.178Z,3.68
2019-02-12T20:04:21.190Z,3.59
2019-02-12T20:06:47.266Z,3.49
2019-02-12T20:09:16.472Z,3.45
2019-02-12T20:11:42.438Z,3.37
2019-02-12T20:14:08.351Z,3.31
2019-02-12T20:16:34.314Z,3.34
2019-02-12T20:19:00.482Z,3.37
2019-02-12T20:21:27.324Z,3.41
2019-02-12T20:23:53.288Z,3.32
2019-02-12T20:26:20.043Z,3.25
2019-02-12T20:28:45.933Z,3.20
2019-02-12T20:31:12.263Z,3.15
2019-02-12T20:33:38.111Z,3.11
2019-02-12T20:36:03.986Z,3.02
2019-02-12T20:38:29.836Z,2.92
2019-02-12T20:40:55.911Z,2.88
2019-02-12T20:43:21.953Z,2.88
2019-02-12T20:45:47.838Z,2.87
2019-02-12T20:48:13.647Z,2.90
2019-02-12T20:50:39.743Z,3.04
2019-02-12T20:53:05.703Z,3.04
2019-02-12T20:55:31.580Z,3.02
2019-02-12T20:57:57.478Z,3.02
2019-02-12T21:00:23.546Z,2.91
2019-02-12T21:02:49.598Z,2.81
2019-02-12T21:05:17.662Z,2.78
2019-02-12T21:07:47.802Z,2.78
2019-02-12T21:10:18.925Z,2.73
2019-02-12T21:12:44.890Z,2.72
2019-02-12T21:15:17.072Z,2.71
2019-02-12T21:17:42.936Z,2.67
2019-02-12T21:20:10.592Z,2.55
2019-02-12T21:22:38.057Z,2.52
2019-02-12T21:25:07.684Z,2.44
2019-02-12T21:27:33.662Z,2.43
2019-02-12T21:29:59.483Z,2.40
2019-02-12T21:32:25.396Z,2.37
2019-02-12T21:34:51.507Z,2.37
2019-02-12T21:37:17.402Z,2.34
2019-02-12T21:39:43.229Z,2.42
2019-02-12T21:42:10.059Z,2.34
2019-02-12T21:44:35.922Z,2.29
2019-02-12T21:47:01.811Z,2.28
2019-02-12T21:49:27.664Z,2.31
2019-02-12T21:51:54.164Z,2.43
2019-02-12T21:54:20.037Z,2.48
2019-02-12T21:56:46.000Z,2.54
2019-02-12T21:59:13.019Z,2.51
2019-02-12T22:01:38.863Z,2.45
2019-02-12T22:04:04.779Z,2.43
2019-02-12T22:06:30.691Z,2.40
2019-02-12T22:08:56.568Z,2.34
2019-02-12T22:11:22.422Z,2.28
2019-02-12T22:13:48.288Z,2.21
2019-02-12T22:16:14.123Z,2.21
2019-02-12T22:18:39.993Z,2.15
2019-02-12T22:21:05.835Z,2.15
2019-02-12T22:23:31.703Z,2.16
2019-02-12T22:25:57.540Z,2.27
2019-02-12T22:28:23.387Z,2.25
2019-02-12T22:30:49.256Z,2.28
2019-02-12T22:33:15.085Z,2.29
2019-02-12T22:35:40.928Z,2.30
2019-02-12T22:38:06.749Z,2.31
2019-02-12T22:40:32.608Z,2.37
2019-02-12T22:42:58.567Z,2.40
2019-02-12T22:45:26.150Z,2.40
2019-02-12T22:47:52.057Z,2.45
2019-02-12T22:50:18.063Z,2.49
2019-02-12T22:52:43.868Z,2.55
2019-02-12T22:55:09.796Z,2.56
2019-02-12T22:57:35.641Z,2.60
2019-02-12T23:00:04.171Z,2.64
2019-02-12T23:02:30.122Z,2.73
2019-02-12T23:04:55.987Z,2.85
2019-02-12T23:07:21.837Z,2.94
2019-02-12T23:09:48.098Z,3.07
2019-02-12T23:12:14.163Z,3.07
2019-02-12T23:14:39.986Z,3.13
2019-02-12T23:17:05.935Z,3.20
2019-02-12T23:19:31.802Z,3.24
2019-02-12T23:21:58.318Z,3.25
2019-02-12T23:24:24.157Z,3.12
2019-02-12T23:26:49.990Z,2.98
2019-02-12T23:29:15.854Z,2.91
2019-02-12T23:31:41.822Z,2.83
2019-02-12T23:34:07.663Z,2.79
2019-02-12T23:36:33.522Z,2.82
2019-02-12T23:38:59.360Z,2.82
2019-02-12T23:41:25.216Z,2.79
2019-02-12T23:43:51.087Z,2.73
2019-02-12T23:46:16.938Z,2.69
2019-02-12T23:48:42.860Z,2.69
2019-02-12T23:51:08.698Z,2.69
2019-02-12T23:53:34.574Z,2.67
2019-02-12T23:56:00.384Z,2.70
2019-02-12T23:58:26.236Z,2.70
